createdAt,value
2023-03-23T15:57:58.862Z,0.80
2023-03-23T16:00:28.554Z,0.95
2023-03-23T16:03:27.815Z,1.48
2023-03-23T16:05:57.814Z,0.90
2023-03-23T16:08:26.070Z,0.98
2023-03-23T16:10:53.992Z,1.10
2023-03-23T16:13:21.988Z,0.70
2023-03-23T16:15:50.292Z,0.80
2023-03-23T16:18:23.374Z,1.02
2023-03-23T16:20:51.849Z,0.93
2023-03-23T16:23:19.914Z,0.77
2023-03-23T16:25:48.038Z,0.75
2023-03-23T16:28:16.691Z,0.90
2023-03-23T16:30:45.779Z,0.80
2023-03-23T16:33:14.203Z,0.88
2023-03-23T16:35:43.091Z,0.70
2023-03-23T16:38:16.580Z,0.80
2023-03-23T16:40:46.067Z,0.75
2023-03-23T16:43:14.455Z,1.00
2023-03-23T16:45:44.334Z,0.77
2023-03-23T16:48:14.497Z,1.13
2023-03-23T16:50:43.089Z,1.10
2023-03-23T16:53:12.418Z,0.90
2023-03-23T16:55:41.706Z,0.90
2023-03-23T16:58:16.976Z,0.90
2023-03-23T17:00:48.887Z,0.90
2023-03-23T17:03:18.609Z,0.80
2023-03-23T17:05:48.528Z,0.95
2023-03-23T17:08:17.614Z,0.80
2023-03-23T17:10:46.067Z,0.95
2023-03-23T17:13:14.520Z,0.90
2023-03-23T17:15:46.663Z,1.08
2023-03-23T17:18:16.797Z,0.75
2023-03-23T17:20:44.912Z,0.70
2023-03-23T17:23:13.117Z,0.80
2023-03-23T17:25:41.146Z,0.75
2023-03-23T17:28:09.199Z,0.80
2023-03-23T17:30:40.564Z,0.65
2023-03-23T17:33:08.376Z,0.70
2023-03-23T17:35:36.522Z,0.63
2023-03-23T17:38:04.390Z,0.80
2023-03-23T17:40:32.661Z,0.80
2023-03-23T17:43:01.197Z,0.90
2023-03-23T17:45:29.122Z,0.90
2023-03-23T17:47:56.916Z,0.90
2023-03-23T17:50:25.233Z,0.93
2023-03-23T17:52:53.089Z,1.20
2023-03-23T17:55:20.991Z,0.93
2023-03-23T17:57:49.491Z,0.90
2023-03-23T18:00:18.133Z,1.55
2023-03-23T18:02:46.022Z,1.02
2023-03-23T18:05:14.742Z,0.90
2023-03-23T18:07:42.883Z,1.00
2023-03-23T18:10:14.794Z,0.90
2023-03-23T18:12:43.433Z,0.95
2023-03-23T18:15:12.492Z,1.10
2023-03-23T18:17:40.752Z,0.98
2023-03-23T18:20:09.294Z,1.15
2023-03-23T18:22:37.112Z,0.88
2023-03-23T18:25:05.454Z,0.80
2023-03-23T18:27:34.211Z,0.85
2023-03-23T18:30:03.294Z,0.85
2023-03-23T18:32:31.435Z,0.80
2023-03-23T18:35:02.528Z,1.08
2023-03-23T18:37:32.860Z,1.45
2023-03-23T18:40:01.023Z,1.20
2023-03-23T18:42:29.529Z,1.08
2023-03-23T18:45:00.109Z,1.25
2023-03-23T18:47:27.935Z,2.45
2023-03-23T18:49:56.327Z,2.75
2023-03-23T18:52:26.858Z,2.58
2023-03-23T18:54:56.948Z,2.50
2023-03-23T18:57:25.420Z,1.63
2023-03-23T18:59:53.550Z,1.20
2023-03-23T19:02:22.180Z,1.05
2023-03-23T19:04:51.140Z,1.33
2023-03-23T19:07:20.067Z,1.00
2023-03-23T19:09:48.521Z,1.20
2023-03-23T19:12:16.948Z,1.38
2023-03-23T19:14:45.242Z,1.30
2023-03-23T19:17:13.331Z,1.23
2023-03-23T19:19:43.185Z,1.13
2023-03-23T19:22:12.994Z,1.10
2023-03-23T19:24:40.877Z,1.10
2023-03-23T19:27:14.701Z,1.52
2023-03-23T19:29:43.487Z,1.85
2023-03-23T19:32:11.518Z,1.60
2023-03-23T19:34:39.663Z,1.50
2023-03-23T19:37:11.077Z,1.80
2023-03-23T19:39:41.754Z,1.52
2023-03-23T19:42:11.256Z,1.73
2023-03-23T19:44:39.376Z,1.50
2023-03-23T19:47:07.653Z,1.73
2023-03-23T19:49:35.628Z,1.48
2023-03-23T19:52:08.369Z,1.30
2023-03-23T19:54:39.418Z,1.20
2023-03-23T19:57:08.161Z,1.35
2023-03-23T19:59:36.802Z,1.20
2023-03-23T20:02:05.200Z,1.17
2023-03-23T20:04:33.097Z,0.95
2023-03-23T20:07:00.982Z,1.30
2023-03-23T20:09:31.995Z,1.60
2023-03-23T20:12:02.454Z,2.00
2023-03-23T20:14:32.645Z,1.90
2023-03-23T20:17:00.795Z,2.75
2023-03-23T20:19:29.185Z,1.85
2023-03-23T20:21:56.943Z,1.70
2023-03-23T20:24:25.411Z,1.35
2023-03-23T20:26:53.296Z,1.33
2023-03-23T20:29:21.414Z,1.40
2023-03-23T20:31:51.097Z,1.67
2023-03-23T20:34:29.428Z,1.98
2023-03-23T20:36:58.787Z,1.83
2023-03-23T20:39:29.473Z,1.88
2023-03-23T20:41:59.591Z,1.90
2023-03-23T20:44:39.808Z,1.75
2023-03-23T20:47:08.844Z,2.20
2023-03-23T20:49:37.588Z,2.70
2023-03-23T20:52:12.395Z,2.97
2023-03-23T20:54:41.014Z,2.50
2023-03-23T20:57:12.576Z,4.82
2023-03-23T21:02:10.737Z,4.60
2023-03-23T21:04:40.522Z,3.72
2023-03-23T21:07:08.857Z,3.50
2023-03-23T21:09:36.942Z,3.20
2023-03-23T21:12:06.594Z,3.42
2023-03-23T21:14:35.516Z,3.47
2023-03-23T21:17:04.498Z,3.50
2023-03-23T21:19:33.341Z,2.35
2023-03-23T21:22:01.195Z,1.92
2023-03-23T21:24:30.702Z,1.58
2023-03-23T21:27:03.084Z,1.75
2023-03-23T21:29:31.169Z,1.58
2023-03-23T21:36:58.827Z,1.50
2023-03-23T21:39:27.379Z,1.50
2023-03-23T21:41:55.638Z,1.48
2023-03-23T21:44:23.918Z,1.10
2023-03-23T21:46:56.196Z,1.45
2023-03-23T21:49:24.125Z,0.70
2023-03-23T21:51:52.168Z,0.60
2023-03-23T21:54:21.329Z,1.00
2023-03-23T21:56:49.470Z,0.90
2023-03-23T21:59:17.856Z,1.48
2023-03-23T22:01:45.921Z,0.90
2023-03-23T22:04:13.890Z,0.70
2023-03-23T22:06:42.624Z,0.60
2023-03-23T22:09:11.104Z,0.88
2023-03-23T22:11:39.998Z,0.88
2023-03-23T22:14:08.203Z,0.98
2023-03-23T22:16:38.858Z,0.80
2023-03-23T22:19:09.327Z,0.80
2023-03-23T22:21:37.227Z,0.90
2023-03-23T22:24:05.547Z,0.63
2023-03-23T22:26:33.622Z,1.00
2023-03-23T22:29:02.172Z,0.98
2023-03-23T22:31:34.168Z,1.10
2023-03-23T22:34:02.583Z,0.90
2023-03-23T22:36:31.465Z,1.10
2023-03-23T22:38:59.920Z,0.80
2023-03-23T22:41:31.664Z,1.00
2023-03-23T22:43:59.603Z,0.85
2023-03-23T22:46:27.725Z,0.93
2023-03-23T22:48:55.540Z,0.70
2023-03-23T22:51:24.299Z,0.88
2023-03-23T22:53:52.249Z,0.90
2023-03-23T22:56:20.832Z,1.42
2023-03-23T22:58:49.002Z,0.73
2023-03-23T23:01:20.223Z,1.23
2023-03-23T23:03:48.394Z,1.17
2023-03-23T23:06:17.704Z,1.00
2023-03-23T23:08:46.564Z,0.95
2023-03-23T23:11:16.548Z,1.52
2023-03-23T23:13:44.806Z,1.05
2023-03-23T23:16:14.344Z,1.23
2023-03-23T23:18:42.385Z,0.80
2023-03-23T23:21:16.763Z,1.13
2023-03-23T23:23:46.627Z,1.02
2023-03-23T23:26:16.369Z,1.17
2023-03-23T23:28:45.172Z,0.98
2023-03-23T23:31:32.569Z,1.10
2023-03-23T23:34:01.876Z,1.05
2023-03-23T23:36:30.630Z,0.85
2023-03-23T23:39:02.232Z,1.00
2023-03-23T23:41:30.838Z,1.10
2023-03-23T23:44:02.673Z,1.08
2023-03-23T23:46:31.954Z,1.13
2023-03-23T23:49:01.164Z,0.95
2023-03-23T23:51:30.021Z,1.40
2023-03-23T23:53:59.248Z,0.95
2023-03-23T23:56:28.216Z,0.98
2023-03-23T23:58:56.401Z,1.02
